sensor_id;sensor_type;location;lat;lon;timestamp;temperature;humidity
15426;DHT22;7812;50.072;7.036;2023-06-05T00:01:59;10.30;99.90
15426;DHT22;7812;50.072;7.036;2023-06-05T00:04:25;10.20;99.90
15426;DHT22;7812;50.072;7.036;2023-06-05T00:06:51;10.10;99.90
15426;DHT22;7812;50.072;7.036;2023-06-05T00:09:18;10.10;99.90
15426;DHT22;7812;50.072;7.036;2023-06-05T00:11:44;10.10;99.90
15426;DHT22;7812;50.072;7.036;2023-06-05T00:14:10;10.10;99.90
15426;DHT22;7812;50.072;7.036;2023-06-05T00:16:36;9.90;99.90
15426;DHT22;7812;50.072;7.036;2023-06-05T00:19:03;9.90;99.90
15426;DHT22;7812;50.072;7.036;2023-06-05T00:21:29;10.00;99.90
15426;DHT22;7812;50.072;7.036;2023-06-05T00:23:54;10.10;99.90
15426;DHT22;7812;50.072;7.036;2023-06-05T00:26:20;10.00;99.90
15426;DHT22;7812;50.072;7.036;2023-06-05T00:28:46;10.00;99.90
15426;DHT22;7812;50.072;7.036;2023-06-05T00:31:18;9.90;99.90
15426;DHT22;7812;50.072;7.036;2023-06-05T00:33:44;9.80;99.90
15426;DHT22;7812;50.072;7.036;2023-06-05T00:36:10;9.70;99.90
15426;DHT22;7812;50.072;7.036;2023-06-05T00:38:36;9.60;99.90
15426;DHT22;7812;50.072;7.036;2023-06-05T00:41:02;9.60;99.90
15426;DHT22;7812;50.072;7.036;2023-06-05T00:43:28;9.60;99.90
15426;DHT22;7812;50.072;7.036;2023-06-05T00:46:01;9.60;99.90
15426;DHT22;7812;50.072;7.036;2023-06-05T00:48:29;9.60;99.90
15426;DHT22;7812;50.072;7.036;2023-06-05T00:50:54;9.60;99.90
15426;DHT22;7812;50.072;7.036;2023-06-05T00:53:23;9.50;99.90
15426;DHT22;7812;50.072;7.036;2023-06-05T00:55:49;9.50;99.90
15426;DHT22;7812;50.072;7.036;2023-06-05T00:58:15;9.50;99.90
15426;DHT22;7812;50.072;7.036;2023-06-05T01:00:42;9.40;99.90
15426;DHT22;7812;50.072;7.036;2023-06-05T01:03:07;9.40;99.90
15426;DHT22;7812;50.072;7.036;2023-06-05T01:05:34;9.40;99.90
15426;DHT22;7812;50.072;7.036;2023-06-05T01:08:02;9.40;99.90
15426;DHT22;7812;50.072;7.036;2023-06-05T01:10:30;9.30;99.90
15426;DHT22;7812;50.072;7.036;2023-06-05T01:13:06;9.20;99.90
15426;DHT22;7812;50.072;7.036;2023-06-05T01:15:35;9.30;99.90
15426;DHT22;7812;50.072;7.036;2023-06-05T01:18:03;9.30;99.90
15426;DHT22;7812;50.072;7.036;2023-06-05T01:23:01;9.30;99.90
15426;DHT22;7812;50.072;7.036;2023-06-05T01:25:27;9.30;99.90
15426;DHT22;7812;50.072;7.036;2023-06-05T01:30:46;9.20;99.90
15426;DHT22;7812;50.072;7.036;2023-06-05T01:33:40;9.20;99.90
15426;DHT22;7812;50.072;7.036;2023-06-05T01:36:11;9.10;99.90
15426;DHT22;7812;50.072;7.036;2023-06-05T01:38:41;9.10;99.90
15426;DHT22;7812;50.072;7.036;2023-06-05T01:41:10;9.10;99.90
15426;DHT22;7812;50.072;7.036;2023-06-05T01:43:36;9.10;99.90
15426;DHT22;7812;50.072;7.036;2023-06-05T01:46:04;9.10;99.90
15426;DHT22;7812;50.072;7.036;2023-06-05T01:48:33;9.10;99.90
15426;DHT22;7812;50.072;7.036;2023-06-05T01:51:02;9.00;99.90
15426;DHT22;7812;50.072;7.036;2023-06-05T01:53:28;9.00;99.90
15426;DHT22;7812;50.072;7.036;2023-06-05T01:55:55;8.90;99.90
15426;DHT22;7812;50.072;7.036;2023-06-05T01:58:24;8.90;99.90
15426;DHT22;7812;50.072;7.036;2023-06-05T02:00:50;8.80;99.90
15426;DHT22;7812;50.072;7.036;2023-06-05T02:03:18;8.80;99.90
15426;DHT22;7812;50.072;7.036;2023-06-05T02:05:44;8.70;99.90
15426;DHT22;7812;50.072;7.036;2023-06-05T02:08:10;8.80;99.90
15426;DHT22;7812;50.072;7.036;2023-06-05T02:10:36;8.80;99.90
15426;DHT22;7812;50.072;7.036;2023-06-05T02:13:10;8.70;99.90
15426;DHT22;7812;50.072;7.036;2023-06-05T02:15:35;8.60;99.90
15426;DHT22;7812;50.072;7.036;2023-06-05T02:18:02;8.40;99.90
15426;DHT22;7812;50.072;7.036;2023-06-05T02:20:30;8.20;99.90
15426;DHT22;7812;50.072;7.036;2023-06-05T02:22:56;8.30;99.90
15426;DHT22;7812;50.072;7.036;2023-06-05T02:25:22;8.40;99.90
15426;DHT22;7812;50.072;7.036;2023-06-05T02:27:51;8.30;99.90
15426;DHT22;7812;50.072;7.036;2023-06-05T02:30:17;8.30;99.90
15426;DHT22;7812;50.072;7.036;2023-06-05T02:32:43;8.40;99.90
15426;DHT22;7812;50.072;7.036;2023-06-05T02:35:13;8.50;99.90
15426;DHT22;7812;50.072;7.036;2023-06-05T02:37:39;8.50;99.90
15426;DHT22;7812;50.072;7.036;2023-06-05T02:40:14;8.50;99.90
15426;DHT22;7812;50.072;7.036;2023-06-05T02:42:40;8.30;99.90
15426;DHT22;7812;50.072;7.036;2023-06-05T02:45:06;8.20;99.90
15426;DHT22;7812;50.072;7.036;2023-06-05T02:47:35;8.10;99.90
15426;DHT22;7812;50.072;7.036;2023-06-05T02:50:02;8.10;99.90
15426;DHT22;7812;50.072;7.036;2023-06-05T02:52:27;8.10;99.90
15426;DHT22;7812;50.072;7.036;2023-06-05T02:54:53;8.00;99.90
15426;DHT22;7812;50.072;7.036;2023-06-05T02:57:19;7.90;99.90
15426;DHT22;7812;50.072;7.036;2023-06-05T02:59:45;8.00;99.90
15426;DHT22;7812;50.072;7.036;2023-06-05T03:02:11;8.00;99.90
15426;DHT22;7812;50.072;7.036;2023-06-05T03:04:37;8.20;99.90
15426;DHT22;7812;50.072;7.036;2023-06-05T03:07:05;8.20;99.90
15426;DHT22;7812;50.072;7.036;2023-06-05T03:09:31;8.20;99.90
15426;DHT22;7812;50.072;7.036;2023-06-05T03:11:57;8.10;99.90
15426;DHT22;7812;50.072;7.036;2023-06-05T03:14:23;8.10;99.90
15426;DHT22;7812;50.072;7.036;2023-06-05T03:16:49;8.10;99.90
15426;DHT22;7812;50.072;7.036;2023-06-05T03:19:14;8.10;99.90
15426;DHT22;7812;50.072;7.036;2023-06-05T03:21:40;8.10;99.90
15426;DHT22;7812;50.072;7.036;2023-06-05T03:24:11;8.00;99.90
15426;DHT22;7812;50.072;7.036;2023-06-05T03:26:43;8.00;99.90
15426;DHT22;7812;50.072;7.036;2023-06-05T03:29:12;8.00;99.90
15426;DHT22;7812;50.072;7.036;2023-06-05T03:31:42;8.10;99.90
15426;DHT22;7812;50.072;7.036;2023-06-05T03:34:08;8.00;99.90
15426;DHT22;7812;50.072;7.036;2023-06-05T03:36:34;8.00;99.90
15426;DHT22;7812;50.072;7.036;2023-06-05T03:39:00;8.00;99.90
15426;DHT22;7812;50.072;7.036;2023-06-05T03:41:26;8.10;99.90
15426;DHT22;7812;50.072;7.036;2023-06-05T03:43:51;8.20;99.90
15426;DHT22;7812;50.072;7.036;2023-06-05T03:46:17;8.00;99.90
15426;DHT22;7812;50.072;7.036;2023-06-05T03:48:48;8.00;99.90
15426;DHT22;7812;50.072;7.036;2023-06-05T03:51:25;7.90;99.90
15426;DHT22;7812;50.072;7.036;2023-06-05T03:53:59;8.00;99.90
15426;DHT22;7812;50.072;7.036;2023-06-05T03:56:26;8.00;99.90
15426;DHT22;7812;50.072;7.036;2023-06-05T03:58:59;8.10;99.90
15426;DHT22;7812;50.072;7.036;2023-06-05T04:01:35;8.00;99.90
15426;DHT22;7812;50.072;7.036;2023-06-05T04:04:06;7.90;99.90
15426;DHT22;7812;50.072;7.036;2023-06-05T04:06:32;8.00;99.90
15426;DHT22;7812;50.072;7.036;2023-06-05T04:08:59;8.20;99.90
15426;DHT22;7812;50.072;7.036;2023-06-05T04:11:26;8.20;99.90
15426;DHT22;7812;50.072;7.036;2023-06-05T04:13:55;8.30;99.90
15426;DHT22;7812;50.072;7.036;2023-06-05T04:16:21;8.30;99.90
15426;DHT22;7812;50.072;7.036;2023-06-05T04:18:47;8.30;99.90
15426;DHT22;7812;50.072;7.036;2023-06-05T04:21:13;8.10;99.90
15426;DHT22;7812;50.072;7.036;2023-06-05T04:23:39;8.10;99.90
15426;DHT22;7812;50.072;7.036;2023-06-05T04:26:05;8.10;99.90
15426;DHT22;7812;50.072;7.036;2023-06-05T04:28:32;8.00;99.90
15426;DHT22;7812;50.072;7.036;2023-06-05T04:31:00;7.90;99.90
15426;DHT22;7812;50.072;7.036;2023-06-05T04:33:27;7.90;99.90
15426;DHT22;7812;50.072;7.036;2023-06-05T04:35:53;8.10;99.90
15426;DHT22;7812;50.072;7.036;2023-06-05T04:38:18;8.10;99.90
15426;DHT22;7812;50.072;7.036;2023-06-05T04:40:47;8.00;99.90
15426;DHT22;7812;50.072;7.036;2023-06-05T04:43:14;8.00;99.90
15426;DHT22;7812;50.072;7.036;2023-06-05T04:45:40;8.00;99.90
15426;DHT22;7812;50.072;7.036;2023-06-05T04:48:07;8.10;99.90
15426;DHT22;7812;50.072;7.036;2023-06-05T04:50:33;8.20;99.90
15426;DHT22;7812;50.072;7.036;2023-06-05T04:52:59;8.40;99.90
15426;DHT22;7812;50.072;7.036;2023-06-05T04:55:24;8.50;99.90
15426;DHT22;7812;50.072;7.036;2023-06-05T04:57:51;8.50;99.90
15426;DHT22;7812;50.072;7.036;2023-06-05T05:00:18;8.50;99.90
15426;DHT22;7812;50.072;7.036;2023-06-05T05:02:45;8.60;99.90
15426;DHT22;7812;50.072;7.036;2023-06-05T05:05:11;8.60;99.90
15426;DHT22;7812;50.072;7.036;2023-06-05T05:07:42;8.70;99.90
15426;DHT22;7812;50.072;7.036;2023-06-05T05:10:11;9.00;99.90
15426;DHT22;7812;50.072;7.036;2023-06-05T05:12:38;9.00;99.90
15426;DHT22;7812;50.072;7.036;2023-06-05T05:15:04;9.20;99.90
15426;DHT22;7812;50.072;7.036;2023-06-05T05:17:30;9.60;99.90
15426;DHT22;7812;50.072;7.036;2023-06-05T05:19:56;9.90;99.90
15426;DHT22;7812;50.072;7.036;2023-06-05T05:22:23;10.30;99.90
15426;DHT22;7812;50.072;7.036;2023-06-05T05:24:49;10.60;99.90
15426;DHT22;7812;50.072;7.036;2023-06-05T05:27:15;10.90;99.90
15426;DHT22;7812;50.072;7.036;2023-06-05T05:29:40;11.00;99.90
15426;DHT22;7812;50.072;7.036;2023-06-05T05:32:06;11.20;99.90
15426;DHT22;7812;50.072;7.036;2023-06-05T05:34:32;11.20;99.90
15426;DHT22;7812;50.072;7.036;2023-06-05T05:36:59;11.60;99.90
15426;DHT22;7812;50.072;7.036;2023-06-05T05:39:25;12.10;99.90
15426;DHT22;7812;50.072;7.036;2023-06-05T05:41:51;12.30;99.90
15426;DHT22;7812;50.072;7.036;2023-06-05T05:44:16;12.60;99.90
15426;DHT22;7812;50.072;7.036;2023-06-05T05:46:45;12.80;99.90
15426;DHT22;7812;50.072;7.036;2023-06-05T05:49:12;12.60;99.90
15426;DHT22;7812;50.072;7.036;2023-06-05T05:51:37;12.70;99.90
15426;DHT22;7812;50.072;7.036;2023-06-05T05:54:03;13.10;99.90
15426;DHT22;7812;50.072;7.036;2023-06-05T05:56:35;13.20;99.90
15426;DHT22;7812;50.072;7.036;2023-06-05T05:59:03;13.60;99.90
15426;DHT22;7812;50.072;7.036;2023-06-05T06:01:28;14.30;99.90
15426;DHT22;7812;50.072;7.036;2023-06-05T06:03:54;14.70;99.90
15426;DHT22;7812;50.072;7.036;2023-06-05T06:06:20;15.00;99.90
15426;DHT22;7812;50.072;7.036;2023-06-05T06:08:46;15.50;99.90
15426;DHT22;7812;50.072;7.036;2023-06-05T06:11:12;15.70;99.90
15426;DHT22;7812;50.072;7.036;2023-06-05T06:13:38;16.30;99.90
15426;DHT22;7812;50.072;7.036;2023-06-05T06:16:04;16.20;99.90
15426;DHT22;7812;50.072;7.036;2023-06-05T06:18:29;16.50;99.90
15426;DHT22;7812;50.072;7.036;2023-06-05T06:20:55;17.00;99.90
15426;DHT22;7812;50.072;7.036;2023-06-05T06:23:21;17.30;99.90
15426;DHT22;7812;50.072;7.036;2023-06-05T06:25:47;17.60;99.90
15426;DHT22;7812;50.072;7.036;2023-06-05T06:28:12;17.60;99.90
15426;DHT22;7812;50.072;7.036;2023-06-05T06:30:38;18.00;99.90
15426;DHT22;7812;50.072;7.036;2023-06-05T06:33:04;18.40;99.90
15426;DHT22;7812;50.072;7.036;2023-06-05T06:35:30;19.10;99.90
15426;DHT22;7812;50.072;7.036;2023-06-05T06:38:01;19.90;99.90
15426;DHT22;7812;50.072;7.036;2023-06-05T06:40:27;20.30;99.90
15426;DHT22;7812;50.072;7.036;2023-06-05T06:42:54;20.30;99.90
15426;DHT22;7812;50.072;7.036;2023-06-05T06:45:20;20.40;99.90
15426;DHT22;7812;50.072;7.036;2023-06-05T06:47:46;21.20;99.90
15426;DHT22;7812;50.072;7.036;2023-06-05T06:50:13;21.90;99.90
15426;DHT22;7812;50.072;7.036;2023-06-05T06:52:39;22.40;99.90
15426;DHT22;7812;50.072;7.036;2023-06-05T06:55:06;22.90;99.90
15426;DHT22;7812;50.072;7.036;2023-06-05T06:57:32;22.80;99.90
15426;DHT22;7812;50.072;7.036;2023-06-05T06:59:57;23.60;99.90
15426;DHT22;7812;50.072;7.036;2023-06-05T07:02:24;23.80;99.90
15426;DHT22;7812;50.072;7.036;2023-06-05T07:04:51;24.30;99.90
15426;DHT22;7812;50.072;7.036;2023-06-05T07:07:20;23.30;99.90
15426;DHT22;7812;50.072;7.036;2023-06-05T07:09:49;23.20;99.90
15426;DHT22;7812;50.072;7.036;2023-06-05T07:12:15;23.70;99.90
15426;DHT22;7812;50.072;7.036;2023-06-05T07:14:42;24.20;99.90
15426;DHT22;7812;50.072;7.036;2023-06-05T07:17:08;24.70;99.90
15426;DHT22;7812;50.072;7.036;2023-06-05T07:19:35;24.90;99.90
15426;DHT22;7812;50.072;7.036;2023-06-05T07:22:02;24.80;99.90
15426;DHT22;7812;50.072;7.036;2023-06-05T07:24:33;24.90;99.70
15426;DHT22;7812;50.072;7.036;2023-06-05T07:27:01;25.00;98.80
15426;DHT22;7812;50.072;7.036;2023-06-05T07:29:27;24.10;97.50
15426;DHT22;7812;50.072;7.036;2023-06-05T07:31:55;23.50;98.00
15426;DHT22;7812;50.072;7.036;2023-06-05T07:34:22;23.70;97.90
15426;DHT22;7812;50.072;7.036;2023-06-05T07:36:49;23.50;98.70
15426;DHT22;7812;50.072;7.036;2023-06-05T07:39:16;23.50;97.50
15426;DHT22;7812;50.072;7.036;2023-06-05T07:41:42;23.50;98.30
15426;DHT22;7812;50.072;7.036;2023-06-05T07:44:09;23.90;97.90
15426;DHT22;7812;50.072;7.036;2023-06-05T07:46:36;23.80;98.20
15426;DHT22;7812;50.072;7.036;2023-06-05T07:49:01;24.60;96.50
15426;DHT22;7812;50.072;7.036;2023-06-05T07:51:27;24.60;96.70
15426;DHT22;7812;50.072;7.036;2023-06-05T07:53:53;24.90;96.30
15426;DHT22;7812;50.072;7.036;2023-06-05T07:56:18;25.80;95.70
15426;DHT22;7812;50.072;7.036;2023-06-05T07:58:44;25.50;95.70
15426;DHT22;7812;50.072;7.036;2023-06-05T08:01:10;26.40;95.00
15426;DHT22;7812;50.072;7.036;2023-06-05T08:03:38;26.60;94.60
15426;DHT22;7812;50.072;7.036;2023-06-05T08:06:03;26.10;93.40
15426;DHT22;7812;50.072;7.036;2023-06-05T08:08:29;25.50;94.00
15426;DHT22;7812;50.072;7.036;2023-06-05T08:10:56;24.90;93.50
15426;DHT22;7812;50.072;7.036;2023-06-05T08:13:23;24.90;94.00
15426;DHT22;7812;50.072;7.036;2023-06-05T08:15:49;24.80;94.00
15426;DHT22;7812;50.072;7.036;2023-06-05T08:18:15;25.30;94.30
15426;DHT22;7812;50.072;7.036;2023-06-05T08:20:41;25.00;94.70
15426;DHT22;7812;50.072;7.036;2023-06-05T08:23:07;25.10;94.70
15426;DHT22;7812;50.072;7.036;2023-06-05T08:25:33;25.60;93.50
15426;DHT22;7812;50.072;7.036;2023-06-05T08:27:59;26.00;92.90
15426;DHT22;7812;50.072;7.036;2023-06-05T08:30:24;26.00;91.90
15426;DHT22;7812;50.072;7.036;2023-06-05T08:32:50;26.50;92.20
15426;DHT22;7812;50.072;7.036;2023-06-05T08:35:16;26.00;92.00
15426;DHT22;7812;50.072;7.036;2023-06-05T08:37:43;26.40;92.50
15426;DHT22;7812;50.072;7.036;2023-06-05T08:40:10;27.00;91.00
15426;DHT22;7812;50.072;7.036;2023-06-05T08:42:38;26.20;90.60
15426;DHT22;7812;50.072;7.036;2023-06-05T08:45:07;26.70;91.90
15426;DHT22;7812;50.072;7.036;2023-06-05T08:47:36;27.30;90.50
15426;DHT22;7812;50.072;7.036;2023-06-05T08:50:05;28.10;89.00
15426;DHT22;7812;50.072;7.036;2023-06-05T08:52:37;27.10;86.50
15426;DHT22;7812;50.072;7.036;2023-06-05T08:55:05;26.40;89.10
15426;DHT22;7812;50.072;7.036;2023-06-05T08:57:41;27.00;90.50
15426;DHT22;7812;50.072;7.036;2023-06-05T09:00:08;27.30;88.50
15426;DHT22;7812;50.072;7.036;2023-06-05T09:02:40;27.10;89.70
15426;DHT22;7812;50.072;7.036;2023-06-05T09:05:10;27.50;87.70
15426;DHT22;7812;50.072;7.036;2023-06-05T09:07:37;27.40;88.50
15426;DHT22;7812;50.072;7.036;2023-06-05T09:10:04;27.20;82.80
15426;DHT22;7812;50.072;7.036;2023-06-05T09:12:29;26.60;85.10
15426;DHT22;7812;50.072;7.036;2023-06-05T09:14:55;27.50;87.10
15426;DHT22;7812;50.072;7.036;2023-06-05T09:17:21;27.30;85.60
15426;DHT22;7812;50.072;7.036;2023-06-05T09:19:48;26.80;84.30
15426;DHT22;7812;50.072;7.036;2023-06-05T09:22:14;26.30;84.70
15426;DHT22;7812;50.072;7.036;2023-06-05T09:24:41;26.20;84.60
15426;DHT22;7812;50.072;7.036;2023-06-05T09:27:09;26.50;86.20
15426;DHT22;7812;50.072;7.036;2023-06-05T09:29:40;27.60;84.10
15426;DHT22;7812;50.072;7.036;2023-06-05T09:32:15;27.90;84.00
15426;DHT22;7812;50.072;7.036;2023-06-05T09:34:41;27.70;84.40
15426;DHT22;7812;50.072;7.036;2023-06-05T09:37:10;28.00;82.50
15426;DHT22;7812;50.072;7.036;2023-06-05T09:39:41;28.00;83.00
15426;DHT22;7812;50.072;7.036;2023-06-05T09:42:08;28.70;83.50
15426;DHT22;7812;50.072;7.036;2023-06-05T09:44:35;30.00;81.20
15426;DHT22;7812;50.072;7.036;2023-06-05T09:47:04;30.20;79.50
15426;DHT22;7812;50.072;7.036;2023-06-05T09:52:08;28.00;82.00
15426;DHT22;7812;50.072;7.036;2023-06-05T09:54:36;27.70;80.70
15426;DHT22;7812;50.072;7.036;2023-06-05T09:57:04;27.90;80.90
15426;DHT22;7812;50.072;7.036;2023-06-05T09:59:31;27.80;80.30
15426;DHT22;7812;50.072;7.036;2023-06-05T10:02:02;27.30;79.70
15426;DHT22;7812;50.072;7.036;2023-06-05T10:04:29;26.90;81.50
15426;DHT22;7812;50.072;7.036;2023-06-05T10:07:00;27.20;81.60
15426;DHT22;7812;50.072;7.036;2023-06-05T10:09:29;27.20;79.10
15426;DHT22;7812;50.072;7.036;2023-06-05T10:11:56;28.10;79.20
15426;DHT22;7812;50.072;7.036;2023-06-05T10:14:22;28.70;79.00
15426;DHT22;7812;50.072;7.036;2023-06-05T10:16:52;28.50;77.80
15426;DHT22;7812;50.072;7.036;2023-06-05T10:19:19;28.60;78.50
15426;DHT22;7812;50.072;7.036;2023-06-05T10:21:48;27.90;77.90
15426;DHT22;7812;50.072;7.036;2023-06-05T10:32:57;29.00;77.50
15426;DHT22;7812;50.072;7.036;2023-06-05T10:38:23;27.50;77.50
15426;DHT22;7812;50.072;7.036;2023-06-05T10:41:00;28.10;76.00
15426;DHT22;7812;50.072;7.036;2023-06-05T10:45:56;28.50;78.10
15426;DHT22;7812;50.072;7.036;2023-06-05T10:54:12;29.00;71.70
15426;DHT22;7812;50.072;7.036;2023-06-05T10:59:30;27.50;73.30
15426;DHT22;7812;50.072;7.036;2023-06-05T11:07:23;29.10;73.50
15426;DHT22;7812;50.072;7.036;2023-06-05T11:10:19;29.80;74.30
15426;DHT22;7812;50.072;7.036;2023-06-05T11:17:48;28.80;74.10
15426;DHT22;7812;50.072;7.036;2023-06-05T11:23:09;29.90;72.40
15426;DHT22;7812;50.072;7.036;2023-06-05T11:25:35;28.80;72.10
15426;DHT22;7812;50.072;7.036;2023-06-05T11:28:05;28.50;72.90
15426;DHT22;7812;50.072;7.036;2023-06-05T11:30:38;28.80;73.20
15426;DHT22;7812;50.072;7.036;2023-06-05T11:33:08;28.60;72.30
15426;DHT22;7812;50.072;7.036;2023-06-05T11:35:35;28.20;72.10
15426;DHT22;7812;50.072;7.036;2023-06-05T11:38:15;28.80;73.30
15426;DHT22;7812;50.072;7.036;2023-06-05T11:40:42;29.40;74.30
15426;DHT22;7812;50.072;7.036;2023-06-05T11:43:11;28.00;74.20
15426;DHT22;7812;50.072;7.036;2023-06-05T11:45:38;28.80;74.00
15426;DHT22;7812;50.072;7.036;2023-06-05T11:48:11;29.70;74.10
15426;DHT22;7812;50.072;7.036;2023-06-05T11:50:38;30.80;72.30
15426;DHT22;7812;50.072;7.036;2023-06-05T11:53:10;31.20;72.90
15426;DHT22;7812;50.072;7.036;2023-06-05T11:55:37;29.00;73.50
15426;DHT22;7812;50.072;7.036;2023-06-05T11:58:24;29.00;73.30
15426;DHT22;7812;50.072;7.036;2023-06-05T12:00:52;30.20;72.10
15426;DHT22;7812;50.072;7.036;2023-06-05T12:03:18;28.70;72.40
15426;DHT22;7812;50.072;7.036;2023-06-05T12:05:45;28.10;75.20
15426;DHT22;7812;50.072;7.036;2023-06-05T12:08:28;28.50;73.40
15426;DHT22;7812;50.072;7.036;2023-06-05T12:10:55;30.30;73.70
15426;DHT22;7812;50.072;7.036;2023-06-05T12:13:47;30.00;72.20
15426;DHT22;7812;50.072;7.036;2023-06-05T12:16:13;29.90;71.70
15426;DHT22;7812;50.072;7.036;2023-06-05T12:18:39;31.00;70.70
15426;DHT22;7812;50.072;7.036;2023-06-05T12:21:05;32.00;69.90
15426;DHT22;7812;50.072;7.036;2023-06-05T12:23:32;31.80;69.70
15426;DHT22;7812;50.072;7.036;2023-06-05T12:26:02;31.30;69.50
15426;DHT22;7812;50.072;7.036;2023-06-05T12:28:29;30.90;70.30
15426;DHT22;7812;50.072;7.036;2023-06-05T12:30:56;30.50;69.10
15426;DHT22;7812;50.072;7.036;2023-06-05T12:33:23;30.50;68.50
15426;DHT22;7812;50.072;7.036;2023-06-05T12:36:07;29.30;69.60
15426;DHT22;7812;50.072;7.036;2023-06-05T12:38:37;29.50;70.40
15426;DHT22;7812;50.072;7.036;2023-06-05T12:41:04;29.90;69.10
15426;DHT22;7812;50.072;7.036;2023-06-05T12:43:32;30.70;68.30
15426;DHT22;7812;50.072;7.036;2023-06-05T12:45:59;31.30;68.40
15426;DHT22;7812;50.072;7.036;2023-06-05T12:48:26;31.30;68.70
15426;DHT22;7812;50.072;7.036;2023-06-05T12:50:52;30.60;68.00
15426;DHT22;7812;50.072;7.036;2023-06-05T12:53:18;30.90;67.10
15426;DHT22;7812;50.072;7.036;2023-06-05T12:55:44;29.60;65.90
15426;DHT22;7812;50.072;7.036;2023-06-05T12:58:10;28.90;66.20
15426;DHT22;7812;50.072;7.036;2023-06-05T13:00:36;28.40;67.00
15426;DHT22;7812;50.072;7.036;2023-06-05T13:03:02;28.20;67.00
15426;DHT22;7812;50.072;7.036;2023-06-05T13:05:29;28.30;68.40
15426;DHT22;7812;50.072;7.036;2023-06-05T13:07:57;27.80;66.20
15426;DHT22;7812;50.072;7.036;2023-06-05T13:10:23;28.50;68.70
15426;DHT22;7812;50.072;7.036;2023-06-05T13:12:49;28.60;67.60
15426;DHT22;7812;50.072;7.036;2023-06-05T13:15:14;28.20;66.60
15426;DHT22;7812;50.072;7.036;2023-06-05T13:17:40;27.90;68.00
15426;DHT22;7812;50.072;7.036;2023-06-05T13:20:06;27.70;68.10
15426;DHT22;7812;50.072;7.036;2023-06-05T13:22:37;27.60;68.70
15426;DHT22;7812;50.072;7.036;2023-06-05T13:25:05;27.60;69.00
15426;DHT22;7812;50.072;7.036;2023-06-05T13:27:32;27.10;68.10
15426;DHT22;7812;50.072;7.036;2023-06-05T13:29:57;27.50;71.20
15426;DHT22;7812;50.072;7.036;2023-06-05T13:32:23;27.90;68.80
15426;DHT22;7812;50.072;7.036;2023-06-05T13:34:49;28.10;69.60
15426;DHT22;7812;50.072;7.036;2023-06-05T13:37:15;28.40;69.80
15426;DHT22;7812;50.072;7.036;2023-06-05T13:39:40;28.00;69.10
15426;DHT22;7812;50.072;7.036;2023-06-05T13:42:06;27.90;69.10
15426;DHT22;7812;50.072;7.036;2023-06-05T13:44:32;27.60;67.80
15426;DHT22;7812;50.072;7.036;2023-06-05T13:46:57;28.00;70.40
15426;DHT22;7812;50.072;7.036;2023-06-05T13:49:29;27.90;71.00
15426;DHT22;7812;50.072;7.036;2023-06-05T13:51:56;28.20;70.30
15426;DHT22;7812;50.072;7.036;2023-06-05T13:54:22;27.80;69.40
15426;DHT22;7812;50.072;7.036;2023-06-05T13:56:48;26.90;70.30
15426;DHT22;7812;50.072;7.036;2023-06-05T13:59:13;26.30;70.70
15426;DHT22;7812;50.072;7.036;2023-06-05T14:01:39;26.40;69.50
15426;DHT22;7812;50.072;7.036;2023-06-05T14:04:05;26.10;70.20
15426;DHT22;7812;50.072;7.036;2023-06-05T14:06:31;25.80;70.70
15426;DHT22;7812;50.072;7.036;2023-06-05T14:08:56;25.80;69.70
15426;DHT22;7812;50.072;7.036;2023-06-05T14:11:22;25.70;71.40
15426;DHT22;7812;50.072;7.036;2023-06-05T14:13:48;25.70;71.80
15426;DHT22;7812;50.072;7.036;2023-06-05T14:16:14;26.00;71.70
15426;DHT22;7812;50.072;7.036;2023-06-05T14:18:39;26.20;72.30
15426;DHT22;7812;50.072;7.036;2023-06-05T14:21:05;26.10;70.70
15426;DHT22;7812;50.072;7.036;2023-06-05T14:23:31;26.30;71.40
15426;DHT22;7812;50.072;7.036;2023-06-05T14:25:56;26.50;70.00
15426;DHT22;7812;50.072;7.036;2023-06-05T14:28:23;26.50;70.20
15426;DHT22;7812;50.072;7.036;2023-06-05T14:30:50;26.60;71.10
15426;DHT22;7812;50.072;7.036;2023-06-05T14:33:16;26.70;69.70
15426;DHT22;7812;50.072;7.036;2023-06-05T14:35:44;26.70;69.40
15426;DHT22;7812;50.072;7.036;2023-06-05T14:38:09;26.70;68.40
15426;DHT22;7812;50.072;7.036;2023-06-05T14:40:41;26.80;68.80
15426;DHT22;7812;50.072;7.036;2023-06-05T14:43:07;26.90;67.60
15426;DHT22;7812;50.072;7.036;2023-06-05T14:45:33;26.90;67.70
15426;DHT22;7812;50.072;7.036;2023-06-05T14:47:58;26.60;67.10
15426;DHT22;7812;50.072;7.036;2023-06-05T14:50:24;26.50;67.30
15426;DHT22;7812;50.072;7.036;2023-06-05T14:52:50;27.00;67.10
15426;DHT22;7812;50.072;7.036;2023-06-05T14:55:15;26.80;66.10
15426;DHT22;7812;50.072;7.036;2023-06-05T14:57:41;26.20;66.60
15426;DHT22;7812;50.072;7.036;2023-06-05T15:00:08;25.50;67.70
15426;DHT22;7812;50.072;7.036;2023-06-05T15:02:34;25.70;70.50
15426;DHT22;7812;50.072;7.036;2023-06-05T15:05:01;25.70;67.20
15426;DHT22;7812;50.072;7.036;2023-06-05T15:07:40;25.50;67.10
15426;DHT22;7812;50.072;7.036;2023-06-05T15:10:08;25.60;68.00
15426;DHT22;7812;50.072;7.036;2023-06-05T15:12:34;25.90;68.50
15426;DHT22;7812;50.072;7.036;2023-06-05T15:15:01;26.20;66.80
15426;DHT22;7812;50.072;7.036;2023-06-05T15:17:26;26.50;67.60
15426;DHT22;7812;50.072;7.036;2023-06-05T15:19:53;26.80;66.40
15426;DHT22;7812;50.072;7.036;2023-06-05T15:22:20;27.00;65.10
15426;DHT22;7812;50.072;7.036;2023-06-05T15:24:47;27.10;65.50
15426;DHT22;7812;50.072;7.036;2023-06-05T15:27:13;27.10;66.10
15426;DHT22;7812;50.072;7.036;2023-06-05T15:29:38;26.50;63.90
15426;DHT22;7812;50.072;7.036;2023-06-05T15:32:04;26.00;64.30
15426;DHT22;7812;50.072;7.036;2023-06-05T15:34:36;25.70;64.40
15426;DHT22;7812;50.072;7.036;2023-06-05T15:37:08;25.40;64.50
15426;DHT22;7812;50.072;7.036;2023-06-05T15:39:36;25.30;65.10
15426;DHT22;7812;50.072;7.036;2023-06-05T15:42:01;25.30;65.50
15426;DHT22;7812;50.072;7.036;2023-06-05T15:44:27;25.50;65.90
15426;DHT22;7812;50.072;7.036;2023-06-05T15:46:53;25.40;65.10
15426;DHT22;7812;50.072;7.036;2023-06-05T15:49:19;25.60;65.30
15426;DHT22;7812;50.072;7.036;2023-06-05T15:51:44;25.90;65.90
15426;DHT22;7812;50.072;7.036;2023-06-05T15:54:12;26.10;66.50
15426;DHT22;7812;50.072;7.036;2023-06-05T15:56:37;26.00;66.50
15426;DHT22;7812;50.072;7.036;2023-06-05T15:59:03;25.80;68.10
15426;DHT22;7812;50.072;7.036;2023-06-05T16:01:29;25.80;66.40
15426;DHT22;7812;50.072;7.036;2023-06-05T16:03:54;25.60;64.70
15426;DHT22;7812;50.072;7.036;2023-06-05T16:06:20;25.50;64.50
15426;DHT22;7812;50.072;7.036;2023-06-05T16:08:45;25.30;65.20
15426;DHT22;7812;50.072;7.036;2023-06-05T16:11:11;25.40;65.60
15426;DHT22;7812;50.072;7.036;2023-06-05T16:13:37;25.40;65.20
15426;DHT22;7812;50.072;7.036;2023-06-05T16:16:03;25.30;65.20
15426;DHT22;7812;50.072;7.036;2023-06-05T16:18:29;25.10;65.90
15426;DHT22;7812;50.072;7.036;2023-06-05T16:20:55;25.10;65.10
15426;DHT22;7812;50.072;7.036;2023-06-05T16:23:21;25.30;65.10
15426;DHT22;7812;50.072;7.036;2023-06-05T16:25:46;25.20;65.40
15426;DHT22;7812;50.072;7.036;2023-06-05T16:28:13;25.30;65.20
15426;DHT22;7812;50.072;7.036;2023-06-05T16:30:39;25.30;68.50
15426;DHT22;7812;50.072;7.036;2023-06-05T16:33:05;25.10;66.30
15426;DHT22;7812;50.072;7.036;2023-06-05T16:35:30;24.90;65.70